sensor_id;sensor_type;location;lat;lon;timestamp;pressure;altitude;pressure_sealevel;temperature;humidity
20889;BME280;10604;51.976;7.594;2023-08-08T00:00:53;100614.50;;;21.67;55.17
20889;BME280;10604;51.976;7.594;2023-08-08T00:03:18;100612.59;;;22.13;54.01
20889;BME280;10604;51.976;7.594;2023-08-08T00:05:44;100610.88;;;22.12;53.93
20889;BME280;10604;51.976;7.594;2023-08-08T00:08:09;100601.81;;;21.91;54.59
20889;BME280;10604;51.976;7.594;2023-08-08T00:10:34;100609.13;;;22.56;53.46
20889;BME280;10604;51.976;7.594;2023-08-08T00:12:59;100615.63;;;22.31;53.72
20889;BME280;10604;51.976;7.594;2023-08-08T00:15:25;100608.06;;;21.92;54.86
20889;BME280;10604;51.976;7.594;2023-08-08T00:17:50;100614.91;;;22.18;54.54
20889;BME280;10604;51.976;7.594;2023-08-08T00:20:15;100603.41;;;21.82;55.54
20889;BME280;10604;51.976;7.594;2023-08-08T00:22:41;100604.28;;;22.05;55.36
20889;BME280;10604;51.976;7.594;2023-08-08T00:25:06;100604.13;;;21.96;55.77
20889;BME280;10604;51.976;7.594;2023-08-08T00:27:32;100602.44;;;22.17;56.13
20889;BME280;10604;51.976;7.594;2023-08-08T00:29:57;100597.66;;;21.65;56.60
20889;BME280;10604;51.976;7.594;2023-08-08T00:32:22;100602.56;;;22.04;56.68
20889;BME280;10604;51.976;7.594;2023-08-08T00:34:47;100602.31;;;22.18;56.22
20889;BME280;10604;51.976;7.594;2023-08-08T00:37:13;100597.41;;;21.90;57.21
20889;BME280;10604;51.976;7.594;2023-08-08T00:39:38;100584.47;;;21.62;58.17
20889;BME280;10604;51.976;7.594;2023-08-08T00:42:04;100583.75;;;21.71;57.80
20889;BME280;10604;51.976;7.594;2023-08-08T00:44:29;100573.03;;;22.15;56.68
20889;BME280;10604;51.976;7.594;2023-08-08T00:46:54;100571.06;;;21.84;56.73
20889;BME280;10604;51.976;7.594;2023-08-08T00:49:20;100569.09;;;21.75;57.34
20889;BME280;10604;51.976;7.594;2023-08-08T00:51:46;100577.69;;;22.02;57.33
20889;BME280;10604;51.976;7.594;2023-08-08T00:54:11;100571.31;;;21.81;57.41
20889;BME280;10604;51.976;7.594;2023-08-08T00:56:38;100575.69;;;21.60;58.39
20889;BME280;10604;51.976;7.594;2023-08-08T00:59:03;100583.75;;;21.93;57.68
20889;BME280;10604;51.976;7.594;2023-08-08T01:01:29;100583.63;;;21.72;58.63
20889;BME280;10604;51.976;7.594;2023-08-08T01:03:54;100586.13;;;21.29;59.57
20889;BME280;10604;51.976;7.594;2023-08-08T01:06:23;100591.31;;;21.66;59.17
20889;BME280;10604;51.976;7.594;2023-08-08T01:08:53;100590.78;;;21.49;59.63
20889;BME280;10604;51.976;7.594;2023-08-08T01:11:20;100585.84;;;21.21;59.99
20889;BME280;10604;51.976;7.594;2023-08-08T01:13:46;100585.91;;;21.43;59.19
20889;BME280;10604;51.976;7.594;2023-08-08T01:16:11;100584.91;;;21.33;59.79
20889;BME280;10604;51.976;7.594;2023-08-08T01:18:37;100583.72;;;21.48;59.34
20889;BME280;10604;51.976;7.594;2023-08-08T01:21:03;100592.97;;;20.75;60.95
20889;BME280;10604;51.976;7.594;2023-08-08T01:23:41;100571.00;;;21.28;59.78
20889;BME280;10604;51.976;7.594;2023-08-08T01:26:07;100579.94;;;20.57;60.94
20889;BME280;10604;51.976;7.594;2023-08-08T01:28:33;100580.38;;;20.99;60.10
20889;BME280;10604;51.976;7.594;2023-08-08T01:30:59;100570.66;;;20.74;60.48
20889;BME280;10604;51.976;7.594;2023-08-08T01:33:24;100572.19;;;20.65;59.89
20889;BME280;10604;51.976;7.594;2023-08-08T01:36:00;100577.75;;;21.10;59.85
20889;BME280;10604;51.976;7.594;2023-08-08T01:40:51;100558.22;;;21.08;58.77
20889;BME280;10604;51.976;7.594;2023-08-08T01:43:16;100543.44;;;21.37;58.81
20889;BME280;10604;51.976;7.594;2023-08-08T01:45:43;100553.22;;;21.49;58.64
20889;BME280;10604;51.976;7.594;2023-08-08T01:48:09;100545.91;;;21.52;58.14
20889;BME280;10604;51.976;7.594;2023-08-08T01:50:35;100548.34;;;21.43;58.10
20889;BME280;10604;51.976;7.594;2023-08-08T01:53:00;100548.84;;;21.71;57.64
20889;BME280;10604;51.976;7.594;2023-08-08T01:55:25;100542.50;;;21.72;57.01
20889;BME280;10604;51.976;7.594;2023-08-08T01:57:51;100543.72;;;21.57;57.58
20889;BME280;10604;51.976;7.594;2023-08-08T02:00:16;100547.25;;;21.11;58.41
20889;BME280;10604;51.976;7.594;2023-08-08T02:02:41;100547.00;;;21.82;57.16
20889;BME280;10604;51.976;7.594;2023-08-08T02:05:07;100549.09;;;21.79;57.36
20889;BME280;10604;51.976;7.594;2023-08-08T02:07:32;100546.34;;;21.34;57.82
20889;BME280;10604;51.976;7.594;2023-08-08T02:09:57;100540.53;;;21.52;57.17
20889;BME280;10604;51.976;7.594;2023-08-08T02:12:22;100528.44;;;21.35;58.33
20889;BME280;10604;51.976;7.594;2023-08-08T02:14:48;100537.25;;;21.59;57.93
20889;BME280;10604;51.976;7.594;2023-08-08T02:17:13;100526.13;;;21.75;57.77
20889;BME280;10604;51.976;7.594;2023-08-08T02:19:38;100530.25;;;21.90;57.07
20889;BME280;10604;51.976;7.594;2023-08-08T02:22:04;100534.19;;;21.86;57.11
20889;BME280;10604;51.976;7.594;2023-08-08T02:24:29;100526.88;;;21.88;57.74
20889;BME280;10604;51.976;7.594;2023-08-08T02:26:54;100524.91;;;21.90;57.70
20889;BME280;10604;51.976;7.594;2023-08-08T02:29:20;100527.59;;;21.79;58.01
20889;BME280;10604;51.976;7.594;2023-08-08T02:31:45;100518.06;;;21.41;58.93
20889;BME280;10604;51.976;7.594;2023-08-08T02:34:10;100516.13;;;21.66;58.24
20889;BME280;10604;51.976;7.594;2023-08-08T02:36:35;100509.06;;;21.65;58.70
20889;BME280;10604;51.976;7.594;2023-08-08T02:39:01;100515.41;;;21.53;58.97
20889;BME280;10604;51.976;7.594;2023-08-08T02:41:26;100514.19;;;21.45;59.01
20889;BME280;10604;51.976;7.594;2023-08-08T02:43:51;100504.38;;;21.89;58.02
20889;BME280;10604;51.976;7.594;2023-08-08T02:46:16;100508.28;;;22.18;57.42
20889;BME280;10604;51.976;7.594;2023-08-08T02:48:42;100513.94;;;21.60;58.54
20889;BME280;10604;51.976;7.594;2023-08-08T02:51:07;100515.38;;;21.30;58.75
20889;BME280;10604;51.976;7.594;2023-08-08T02:53:32;100507.34;;;21.86;58.11
20889;BME280;10604;51.976;7.594;2023-08-08T02:55:58;100509.03;;;21.31;59.40
20889;BME280;10604;51.976;7.594;2023-08-08T02:58:23;100501.47;;;21.92;58.00
20889;BME280;10604;51.976;7.594;2023-08-08T03:00:48;100491.00;;;21.44;58.89
20889;BME280;10604;51.976;7.594;2023-08-08T03:03:14;100479.72;;;22.06;57.50
20889;BME280;10604;51.976;7.594;2023-08-08T03:05:39;100478.91;;;21.50;58.93
20889;BME280;10604;51.976;7.594;2023-08-08T03:08:05;100474.41;;;21.51;58.52
20889;BME280;10604;51.976;7.594;2023-08-08T03:10:30;100465.28;;;22.18;57.34
20889;BME280;10604;51.976;7.594;2023-08-08T03:12:55;100484.59;;;22.23;56.83
20889;BME280;10604;51.976;7.594;2023-08-08T03:15:20;100490.59;;;22.05;57.64
20889;BME280;10604;51.976;7.594;2023-08-08T03:17:46;100490.00;;;21.79;58.24
20889;BME280;10604;51.976;7.594;2023-08-08T03:20:11;100495.22;;;21.92;58.30
20889;BME280;10604;51.976;7.594;2023-08-08T03:22:36;100495.63;;;21.98;58.21
20889;BME280;10604;51.976;7.594;2023-08-08T03:25:02;100494.13;;;21.83;58.08
20889;BME280;10604;51.976;7.594;2023-08-08T03:27:29;100491.44;;;22.05;57.32
20889;BME280;10604;51.976;7.594;2023-08-08T03:29:54;100481.75;;;22.25;57.00
20889;BME280;10604;51.976;7.594;2023-08-08T03:32:19;100479.66;;;22.29;56.92
20889;BME280;10604;51.976;7.594;2023-08-08T03:34:45;100481.91;;;22.12;57.28
20889;BME280;10604;51.976;7.594;2023-08-08T03:37:10;100478.28;;;21.80;57.87
20889;BME280;10604;51.976;7.594;2023-08-08T03:39:35;100478.25;;;21.91;57.92
20889;BME280;10604;51.976;7.594;2023-08-08T03:42:00;100472.88;;;22.13;57.25
20889;BME280;10604;51.976;7.594;2023-08-08T03:44:26;100471.94;;;21.81;57.87
20889;BME280;10604;51.976;7.594;2023-08-08T03:46:51;100470.81;;;21.95;57.23
20889;BME280;10604;51.976;7.594;2023-08-08T03:49:16;100475.84;;;21.77;57.84
20889;BME280;10604;51.976;7.594;2023-08-08T03:51:41;100472.22;;;21.67;58.41
20889;BME280;10604;51.976;7.594;2023-08-08T03:54:12;100469.75;;;21.64;58.01
20889;BME280;10604;51.976;7.594;2023-08-08T03:56:38;100469.75;;;21.64;58.68
20889;BME280;10604;51.976;7.594;2023-08-08T03:59:03;100471.50;;;22.19;57.34
20889;BME280;10604;51.976;7.594;2023-08-08T04:01:28;100475.84;;;21.77;58.57
20889;BME280;10604;51.976;7.594;2023-08-08T04:03:54;100470.72;;;21.74;58.16
20889;BME280;10604;51.976;7.594;2023-08-08T04:06:19;100470.94;;;21.93;57.56
20889;BME280;10604;51.976;7.594;2023-08-08T04:08:44;100476.31;;;21.82;57.54
20889;BME280;10604;51.976;7.594;2023-08-08T04:11:09;100473.91;;;21.57;58.37
20889;BME280;10604;51.976;7.594;2023-08-08T04:13:35;100481.69;;;21.82;57.69
20889;BME280;10604;51.976;7.594;2023-08-08T04:16:00;100461.44;;;22.00;57.28
20889;BME280;10604;51.976;7.594;2023-08-08T04:18:25;100477.06;;;21.39;58.85
20889;BME280;10604;51.976;7.594;2023-08-08T04:20:51;100474.63;;;21.25;59.00
20889;BME280;10604;51.976;7.594;2023-08-08T04:23:16;100461.41;;;21.11;59.43
20889;BME280;10604;51.976;7.594;2023-08-08T04:25:41;100457.06;;;21.21;59.81
20889;BME280;10604;51.976;7.594;2023-08-08T04:28:06;100456.81;;;21.46;58.99
20889;BME280;10604;51.976;7.594;2023-08-08T04:30:32;100462.19;;;21.46;59.27
20889;BME280;10604;51.976;7.594;2023-08-08T04:32:57;100466.06;;;21.76;58.19
20889;BME280;10604;51.976;7.594;2023-08-08T04:35:22;100460.41;;;22.12;57.47
20889;BME280;10604;51.976;7.594;2023-08-08T04:37:47;100478.25;;;22.13;57.40
20889;BME280;10604;51.976;7.594;2023-08-08T04:40:13;100473.59;;;22.15;56.99
20889;BME280;10604;51.976;7.594;2023-08-08T04:42:38;100474.25;;;22.40;56.39
20889;BME280;10604;51.976;7.594;2023-08-08T04:45:04;100467.53;;;21.69;57.84
20889;BME280;10604;51.976;7.594;2023-08-08T04:47:29;100471.19;;;21.68;58.26
20889;BME280;10604;51.976;7.594;2023-08-08T04:49:55;100477.78;;;21.75;57.98
20889;BME280;10604;51.976;7.594;2023-08-08T04:52:20;100466.56;;;21.81;57.77
20889;BME280;10604;51.976;7.594;2023-08-08T04:54:45;100468.00;;;21.85;58.69
20889;BME280;10604;51.976;7.594;2023-08-08T04:57:10;100466.19;;;21.74;58.38
20889;BME280;10604;51.976;7.594;2023-08-08T04:59:36;100455.09;;;22.01;58.35
20889;BME280;10604;51.976;7.594;2023-08-08T05:02:01;100448.28;;;22.18;57.58
20889;BME280;10604;51.976;7.594;2023-08-08T05:04:26;100453.09;;;21.92;58.25
20889;BME280;10604;51.976;7.594;2023-08-08T05:06:51;100450.34;;;22.25;57.54
20889;BME280;10604;51.976;7.594;2023-08-08T05:09:17;100456.75;;;22.13;57.09
20889;BME280;10604;51.976;7.594;2023-08-08T05:11:42;100460.25;;;22.25;57.40
20889;BME280;10604;51.976;7.594;2023-08-08T05:14:07;100448.63;;;22.56;56.74
20889;BME280;10604;51.976;7.594;2023-08-08T05:16:33;100455.72;;;22.25;57.63
20889;BME280;10604;51.976;7.594;2023-08-08T05:18:58;100451.13;;;22.69;56.49
20889;BME280;10604;51.976;7.594;2023-08-08T05:21:23;100453.94;;;22.15;57.46
20889;BME280;10604;51.976;7.594;2023-08-08T05:23:49;100451.72;;;22.52;57.09
20889;BME280;10604;51.976;7.594;2023-08-08T05:26:14;100454.34;;;22.63;56.88
20889;BME280;10604;51.976;7.594;2023-08-08T05:28:40;100455.31;;;22.09;57.55
20889;BME280;10604;51.976;7.594;2023-08-08T05:31:05;100455.09;;;22.01;58.71
20889;BME280;10604;51.976;7.594;2023-08-08T05:33:31;100447.59;;;22.16;58.54
20889;BME280;10604;51.976;7.594;2023-08-08T05:35:56;100452.63;;;21.98;58.81
20889;BME280;10604;51.976;7.594;2023-08-08T05:38:21;100462.88;;;21.82;59.80
20889;BME280;10604;51.976;7.594;2023-08-08T05:40:46;100454.78;;;22.15;58.82
20889;BME280;10604;51.976;7.594;2023-08-08T05:43:12;100448.00;;;22.64;57.72
20889;BME280;10604;51.976;7.594;2023-08-08T05:45:42;100450.19;;;22.06;59.28
20889;BME280;10604;51.976;7.594;2023-08-08T05:48:07;100451.94;;;21.63;59.97
20889;BME280;10604;51.976;7.594;2023-08-08T05:50:34;100449.72;;;21.68;59.87
20889;BME280;10604;51.976;7.594;2023-08-08T05:53:02;100442.22;;;22.16;59.44
20889;BME280;10604;51.976;7.594;2023-08-08T05:55:27;100451.41;;;21.91;60.26
20889;BME280;10604;51.976;7.594;2023-08-08T05:57:53;100445.91;;;22.36;59.08
20889;BME280;10604;51.976;7.594;2023-08-08T06:00:19;100449.59;;;23.08;57.70
20889;BME280;10604;51.976;7.594;2023-08-08T06:02:44;100445.28;;;22.64;58.01
20889;BME280;10604;51.976;7.594;2023-08-08T06:05:10;100454.44;;;23.14;57.56
20889;BME280;10604;51.976;7.594;2023-08-08T06:07:35;100452.41;;;22.01;60.16
20889;BME280;10604;51.976;7.594;2023-08-08T06:10:01;100444.13;;;22.98;58.36
20889;BME280;10604;51.976;7.594;2023-08-08T06:12:26;100447.69;;;22.78;58.21
20889;BME280;10604;51.976;7.594;2023-08-08T06:14:52;100449.72;;;22.54;58.75
20889;BME280;10604;51.976;7.594;2023-08-08T06:17:17;100451.75;;;22.93;58.08
20889;BME280;10604;51.976;7.594;2023-08-08T06:19:42;100453.47;;;22.94;57.99
20889;BME280;10604;51.976;7.594;2023-08-08T06:22:08;100455.53;;;23.12;57.81
20889;BME280;10604;51.976;7.594;2023-08-08T06:24:33;100447.91;;;23.17;57.42
20889;BME280;10604;51.976;7.594;2023-08-08T06:26:58;100455.47;;;23.02;57.84
20889;BME280;10604;51.976;7.594;2023-08-08T06:29:23;100468.47;;;22.97;58.21
20889;BME280;10604;51.976;7.594;2023-08-08T06:31:49;100458.56;;;22.97;57.78
20889;BME280;10604;51.976;7.594;2023-08-08T06:34:14;100462.53;;;22.93;57.96
20889;BME280;10604;51.976;7.594;2023-08-08T06:36:40;100456.88;;;22.96;57.85
20889;BME280;10604;51.976;7.594;2023-08-08T06:39:05;100458.09;;;23.13;57.46
20889;BME280;10604;51.976;7.594;2023-08-08T06:41:31;100460.13;;;23.21;57.74
20889;BME280;10604;51.976;7.594;2023-08-08T06:43:56;100465.91;;;22.95;58.17
20889;BME280;10604;51.976;7.594;2023-08-08T06:46:21;100462.63;;;22.71;58.27
20889;BME280;10604;51.976;7.594;2023-08-08T06:48:47;100466.38;;;22.48;58.96
20889;BME280;10604;51.976;7.594;2023-08-08T06:51:13;100468.09;;;23.32;57.37
20889;BME280;10604;51.976;7.594;2023-08-08T06:53:38;100462.16;;;23.28;56.88
20889;BME280;10604;51.976;7.594;2023-08-08T06:56:03;100469.28;;;23.39;57.35
20889;BME280;10604;51.976;7.594;2023-08-08T06:58:29;100463.47;;;23.74;56.13
20889;BME280;10604;51.976;7.594;2023-08-08T07:00:54;100466.94;;;22.94;57.21
20889;BME280;10604;51.976;7.594;2023-08-08T07:03:19;100472.38;;;23.34;56.46
20889;BME280;10604;51.976;7.594;2023-08-08T07:05:44;100477.03;;;22.70;57.92
20889;BME280;10604;51.976;7.594;2023-08-08T07:08:10;100471.16;;;23.18;57.44
20889;BME280;10604;51.976;7.594;2023-08-08T07:10:36;100467.47;;;23.19;57.33
20889;BME280;10604;51.976;7.594;2023-08-08T07:13:02;100462.00;;;22.99;57.44
20889;BME280;10604;51.976;7.594;2023-08-08T07:15:27;100473.28;;;22.93;58.09
20889;BME280;10604;51.976;7.594;2023-08-08T07:17:53;100465.63;;;22.57;58.59
20889;BME280;10604;51.976;7.594;2023-08-08T07:20:18;100472.28;;;22.42;58.68
20889;BME280;10604;51.976;7.594;2023-08-08T07:22:44;100466.66;;;22.97;57.85
20889;BME280;10604;51.976;7.594;2023-08-08T07:25:09;100466.91;;;22.42;58.98
20889;BME280;10604;51.976;7.594;2023-08-08T07:27:36;100460.75;;;22.83;58.26
20889;BME280;10604;51.976;7.594;2023-08-08T07:30:01;100457.59;;;22.46;58.84
20889;BME280;10604;51.976;7.594;2023-08-08T07:32:28;100457.03;;;23.25;57.59
20889;BME280;10604;51.976;7.594;2023-08-08T07:34:53;100456.94;;;23.67;55.60
20889;BME280;10604;51.976;7.594;2023-08-08T07:37:18;100461.03;;;23.61;56.41
20889;BME280;10604;51.976;7.594;2023-08-08T07:39:43;100454.22;;;23.27;56.40
20889;BME280;10604;51.976;7.594;2023-08-08T07:42:09;100452.72;;;23.74;55.92
20889;BME280;10604;51.976;7.594;2023-08-08T07:44:34;100445.22;;;22.86;57.11
20889;BME280;10604;51.976;7.594;2023-08-08T07:47:03;100453.13;;;23.39;56.40
20889;BME280;10604;51.976;7.594;2023-08-08T07:49:28;100444.94;;;22.89;56.63
20889;BME280;10604;51.976;7.594;2023-08-08T08:04:07;100448.09;;;22.94;57.57
20889;BME280;10604;51.976;7.594;2023-08-08T08:06:33;100453.72;;;22.91;57.44
20889;BME280;10604;51.976;7.594;2023-08-08T08:21:08;100434.41;;;24.46;55.11
20889;BME280;10604;51.976;7.594;2023-08-08T08:26:01;100437.53;;;24.32;55.20
20889;BME280;10604;51.976;7.594;2023-08-08T08:28:26;100446.53;;;24.02;56.11
20889;BME280;10604;51.976;7.594;2023-08-08T08:30:52;100443.09;;;23.71;56.81
20889;BME280;10604;51.976;7.594;2023-08-08T08:33:17;100453.00;;;23.80;57.29
20889;BME280;10604;51.976;7.594;2023-08-08T08:35:42;100449.50;;;23.90;57.28
20889;BME280;10604;51.976;7.594;2023-08-08T08:38:08;100447.91;;;23.17;59.58
20889;BME280;10604;51.976;7.594;2023-08-08T08:40:34;100450.53;;;23.28;57.87
20889;BME280;10604;51.976;7.594;2023-08-08T08:43:01;100444.22;;;24.57;57.91
20889;BME280;10604;51.976;7.594;2023-08-08T08:45:26;100449.31;;;24.79;56.13
20889;BME280;10604;51.976;7.594;2023-08-08T08:47:53;100452.44;;;24.27;56.66
20889;BME280;10604;51.976;7.594;2023-08-08T08:50:20;100456.72;;;23.79;55.20
20889;BME280;10604;51.976;7.594;2023-08-08T08:52:46;100451.41;;;24.37;55.11
20889;BME280;10604;51.976;7.594;2023-08-08T08:55:11;100449.44;;;24.97;54.06
20889;BME280;10604;51.976;7.594;2023-08-08T08:57:37;100447.66;;;25.15;51.43
20889;BME280;10604;51.976;7.594;2023-08-08T09:00:03;100453.91;;;25.90;50.67
20889;BME280;10604;51.976;7.594;2023-08-08T09:02:28;100449.25;;;26.45;51.28
20889;BME280;10604;51.976;7.594;2023-08-08T09:04:55;100441.25;;;25.63;49.86
20889;BME280;10604;51.976;7.594;2023-08-08T09:07:22;100444.09;;;25.52;49.90
20889;BME280;10604;51.976;7.594;2023-08-08T09:09:47;100437.19;;;25.77;50.39
20889;BME280;10604;51.976;7.594;2023-08-08T09:12:13;100433.31;;;25.52;48.55
20889;BME280;10604;51.976;7.594;2023-08-08T09:14:40;100439.81;;;26.13;49.50
20889;BME280;10604;51.976;7.594;2023-08-08T09:17:10;100426.38;;;27.01;47.05
20889;BME280;10604;51.976;7.594;2023-08-08T09:19:35;100430.22;;;26.72;45.18
20889;BME280;10604;51.976;7.594;2023-08-08T09:22:00;100417.50;;;27.50;45.19
20889;BME280;10604;51.976;7.594;2023-08-08T09:24:26;100423.06;;;27.75;45.96
20889;BME280;10604;51.976;7.594;2023-08-08T09:26:51;100430.94;;;28.02;44.70
20889;BME280;10604;51.976;7.594;2023-08-08T09:29:16;100413.13;;;27.49;43.48
20889;BME280;10604;51.976;7.594;2023-08-08T09:31:42;100423.78;;;26.73;44.17
20889;BME280;10604;51.976;7.594;2023-08-08T09:34:07;100421.28;;;26.54;42.88
20889;BME280;10604;51.976;7.594;2023-08-08T09:36:33;100404.00;;;25.57;45.42
20889;BME280;10604;51.976;7.594;2023-08-08T09:38:58;100431.22;;;25.73;44.95
20889;BME280;10604;51.976;7.594;2023-08-08T09:41:24;100422.00;;;25.39;45.82
20889;BME280;10604;51.976;7.594;2023-08-08T09:43:50;100410.84;;;25.61;45.54
20889;BME280;10604;51.976;7.594;2023-08-08T09:46:17;100403.84;;;26.92;44.52
20889;BME280;10604;51.976;7.594;2023-08-08T09:48:43;100414.28;;;27.47;41.97
20889;BME280;10604;51.976;7.594;2023-08-08T09:51:08;100402.56;;;27.38;42.02
20889;BME280;10604;51.976;7.594;2023-08-08T09:53:34;100395.72;;;28.51;41.83
20889;BME280;10604;51.976;7.594;2023-08-08T09:56:00;100410.97;;;28.11;40.48
20889;BME280;10604;51.976;7.594;2023-08-08T09:58:25;100412.06;;;29.46;39.89
20889;BME280;10604;51.976;7.594;2023-08-08T10:00:50;100411.78;;;29.72;38.41
20889;BME280;10604;51.976;7.594;2023-08-08T10:03:16;100409.53;;;29.45;36.87
20889;BME280;10604;51.976;7.594;2023-08-08T10:05:42;100417.72;;;29.37;37.71
20889;BME280;10604;51.976;7.594;2023-08-08T10:08:07;100423.53;;;29.17;38.08
20889;BME280;10604;51.976;7.594;2023-08-08T10:10:32;100411.97;;;28.10;38.89
20889;BME280;10604;51.976;7.594;2023-08-08T10:12:57;100419.50;;;28.89;37.51
20889;BME280;10604;51.976;7.594;2023-08-08T10:15:26;100420.13;;;29.07;38.36
20889;BME280;10604;51.976;7.594;2023-08-08T10:17:56;100422.41;;;29.51;36.97
20889;BME280;10604;51.976;7.594;2023-08-08T10:20:21;100423.22;;;28.72;36.95
20889;BME280;10604;51.976;7.594;2023-08-08T10:22:46;100421.72;;;27.79;37.57
20889;BME280;10604;51.976;7.594;2023-08-08T10:25:25;100423.84;;;27.25;39.49
20889;BME280;10604;51.976;7.594;2023-08-08T10:28:01;100420.81;;;28.28;37.72
20889;BME280;10604;51.976;7.594;2023-08-08T10:30:27;100413.31;;;27.98;36.79
20889;BME280;10604;51.976;7.594;2023-08-08T10:32:52;100420.69;;;29.58;35.53
20889;BME280;10604;51.976;7.594;2023-08-08T10:35:21;100414.75;;;28.51;35.78
20889;BME280;10604;51.976;7.594;2023-08-08T10:37:52;100420.56;;;27.47;35.97
20889;BME280;10604;51.976;7.594;2023-08-08T10:40:18;100425.34;;;27.53;37.86
20889;BME280;10604;51.976;7.594;2023-08-08T10:42:45;100424.56;;;27.69;37.42
20889;BME280;10604;51.976;7.594;2023-08-08T10:45:11;100411.69;;;28.62;35.27
20889;BME280;10604;51.976;7.594;2023-08-08T10:47:40;100409.84;;;28.54;34.60
20889;BME280;10604;51.976;7.594;2023-08-08T10:55:26;100421.53;;;28.38;38.54
20889;BME280;10604;51.976;7.594;2023-08-08T10:57:58;100418.09;;;29.17;34.58
20889;BME280;10604;51.976;7.594;2023-08-08T11:00:25;100420.16;;;28.99;35.48
20889;BME280;10604;51.976;7.594;2023-08-08T11:02:51;100421.63;;;29.73;35.47
20889;BME280;10604;51.976;7.594;2023-08-08T11:05:16;100430.63;;;29.35;34.91
20889;BME280;10604;51.976;7.594;2023-08-08T11:07:42;100412.50;;;29.66;34.04
20889;BME280;10604;51.976;7.594;2023-08-08T11:10:08;100425.56;;;29.15;35.36
20889;BME280;10604;51.976;7.594;2023-08-08T11:12:33;100411.88;;;28.60;34.92
20889;BME280;10604;51.976;7.594;2023-08-08T11:14:58;100425.16;;;29.43;34.89
20889;BME280;10604;51.976;7.594;2023-08-08T11:17:24;100411.00;;;29.94;34.03
20889;BME280;10604;51.976;7.594;2023-08-08T11:19:50;100411.59;;;30.96;31.86
20889;BME280;10604;51.976;7.594;2023-08-08T11:22:15;100444.69;;;29.85;32.49
20889;BME280;10604;51.976;7.594;2023-08-08T11:24:41;100424.28;;;29.50;33.14
20889;BME280;10604;51.976;7.594;2023-08-08T11:27:06;100419.38;;;30.16;33.66
20889;BME280;10604;51.976;7.594;2023-08-08T11:29:31;100422.75;;;29.95;32.47
20889;BME280;10604;51.976;7.594;2023-08-08T11:31:59;100420.25;;;29.38;33.34
20889;BME280;10604;51.976;7.594;2023-08-08T11:34:25;100400.09;;;29.08;32.70
20889;BME280;10604;51.976;7.594;2023-08-08T11:36:51;100406.91;;;30.44;32.35
20889;BME280;10604;51.976;7.594;2023-08-08T11:39:16;100401.28;;;31.06;31.82
20889;BME280;10604;51.976;7.594;2023-08-08T11:41:42;100419.28;;;30.32;32.76
20889;BME280;10604;51.976;7.594;2023-08-08T11:44:07;100408.25;;;30.03;32.31
20889;BME280;10604;51.976;7.594;2023-08-08T11:46:33;100410.66;;;29.58;33.53
20889;BME280;10604;51.976;7.594;2023-08-08T11:49:02;100407.97;;;29.89;33.57
20889;BME280;10604;51.976;7.594;2023-08-08T11:51:27;100404.84;;;31.50;32.06
20889;BME280;10604;51.976;7.594;2023-08-08T11:53:53;100400.69;;;30.96;32.05
20889;BME280;10604;51.976;7.594;2023-08-08T11:56:19;100397.63;;;30.61;32.28
20889;BME280;10604;51.976;7.594;2023-08-08T11:58:45;100390.06;;;31.60;31.88
20889;BME280;10604;51.976;7.594;2023-08-08T12:01:10;100396.91;;;32.21;30.88
20889;BME280;10604;51.976;7.594;2023-08-08T12:03:39;100402.44;;;32.27;31.51
20889;BME280;10604;51.976;7.594;2023-08-08T12:06:14;100393.00;;;30.39;31.46
20889;BME280;10604;51.976;7.594;2023-08-08T12:08:40;100397.59;;;30.39;32.62
20889;BME280;10604;51.976;7.594;2023-08-08T12:11:05;100396.94;;;31.56;32.20
20889;BME280;10604;51.976;7.594;2023-08-08T12:13:31;100393.50;;;31.18;31.61
20889;BME280;10604;51.976;7.594;2023-08-08T12:15:57;100395.41;;;32.61;30.45
20889;BME280;10604;51.976;7.594;2023-08-08T12:18:23;100393.34;;;32.06;29.34
20889;BME280;10604;51.976;7.594;2023-08-08T12:20:49;100384.63;;;31.60;29.87
20889;BME280;10604;51.976;7.594;2023-08-08T12:23:14;100393.75;;;31.67;31.57
20889;BME280;10604;51.976;7.594;2023-08-08T12:25:41;100398.06;;;30.42;31.75
20889;BME280;10604;51.976;7.594;2023-08-08T12:28:07;100388.66;;;29.76;33.03
20889;BME280;10604;51.976;7.594;2023-08-08T12:30:32;100372.31;;;30.30;31.83
20889;BME280;10604;51.976;7.594;2023-08-08T12:32:58;100369.75;;;30.06;32.08
20889;BME280;10604;51.976;7.594;2023-08-08T12:35:23;100379.00;;;29.27;33.13
20889;BME280;10604;51.976;7.594;2023-08-08T12:37:51;100382.34;;;29.45;34.52
20889;BME280;10604;51.976;7.594;2023-08-08T12:40:17;100386.63;;;29.70;34.86
20889;BME280;10604;51.976;7.594;2023-08-08T12:42:42;100383.81;;;29.94;34.20
20889;BME280;10604;51.976;7.594;2023-08-08T12:45:07;100388.44;;;29.55;34.47
20889;BME280;10604;51.976;7.594;2023-08-08T12:47:34;100380.34;;;30.84;34.12
20889;BME280;10604;51.976;7.594;2023-08-08T12:50:03;100385.31;;;32.40;30.58
20889;BME280;10604;51.976;7.594;2023-08-08T12:52:28;100391.75;;;32.11;31.44
20889;BME280;10604;51.976;7.594;2023-08-08T12:54:53;100390.31;;;33.41;31.05
20889;BME280;10604;51.976;7.594;2023-08-08T12:57:18;100391.06;;;32.45;31.18
20889;BME280;10604;51.976;7.594;2023-08-08T12:59:44;100404.84;;;31.80;32.21
20889;BME280;10604;51.976;7.594;2023-08-08T13:02:09;100387.88;;;30.82;32.36
20889;BME280;10604;51.976;7.594;2023-08-08T13:04:34;100401.34;;;31.71;31.79
20889;BME280;10604;51.976;7.594;2023-08-08T13:06:59;100390.59;;;31.19;32.32
20889;BME280;10604;51.976;7.594;2023-08-08T13:09:25;100386.41;;;30.11;32.62
20889;BME280;10604;51.976;7.594;2023-08-08T13:11:50;100385.75;;;30.09;33.25
20889;BME280;10604;51.976;7.594;2023-08-08T13:14:15;100403.88;;;28.67;34.82
20889;BME280;10604;51.976;7.594;2023-08-08T13:16:41;100410.94;;;28.03;36.73